createdAt,value
2018-07-02T00:00:39.517Z,11.9
2018-07-02T00:01:38.411Z,11.8
2018-07-02T00:02:38.398Z,11.8
2018-07-02T00:03:37.109Z,11.8
2018-07-02T00:04:36.188Z,11.8
2018-07-02T00:05:35.741Z,11.8
2018-07-02T00:06:34.934Z,11.8
2018-07-02T00:07:34.539Z,11.8
2018-07-02T00:08:33.251Z,11.7
2018-07-02T00:09:32.223Z,11.7
2018-07-02T00:10:31.706Z,11.8
2018-07-02T00:11:31.027Z,11.8
2018-07-02T00:12:30.374Z,11.7
2018-07-02T00:13:29.603Z,11.7
2018-07-02T00:14:28.586Z,11.7
2018-07-02T00:15:27.963Z,11.7
2018-07-02T00:16:27.140Z,11.7
2018-07-02T00:17:26.645Z,11.7
2018-07-02T00:18:25.801Z,11.7
2018-07-02T00:19:24.670Z,11.7
2018-07-02T00:20:24.003Z,11.7
2018-07-02T00:21:23.407Z,11.7
2018-07-02T00:22:22.425Z,11.7
2018-07-02T00:23:22.074Z,11.6
2018-07-02T00:25:20.245Z,11.6
2018-07-02T00:26:19.719Z,11.6
2018-07-02T00:27:18.692Z,11.6
2018-07-02T00:28:17.800Z,11.6
2018-07-02T00:29:17.269Z,11.6
2018-07-02T00:30:16.268Z,11.6
2018-07-02T00:31:15.711Z,11.6
2018-07-02T00:32:14.656Z,11.6
2018-07-02T00:33:14.012Z,11.5
2018-07-02T00:34:13.379Z,11.5
2018-07-02T00:35:12.452Z,11.5
2018-07-02T00:36:11.890Z,11.5
2018-07-02T00:37:11.080Z,11.5
2018-07-02T00:38:09.981Z,11.5
2018-07-02T00:38:41.064Z,11.5
2018-07-02T00:39:11.324Z,11.4
2018-07-02T00:40:08.340Z,11.4
2018-07-02T00:41:07.533Z,11.4
2018-07-02T00:42:06.720Z,11.4
2018-07-02T00:43:06.100Z,11.3
2018-07-02T00:44:05.475Z,11.3
2018-07-02T00:45:06.166Z,11.3
2018-07-02T00:46:04.096Z,11.3
2018-07-02T00:47:03.225Z,11.3
2018-07-02T00:48:02.121Z,11.3
2018-07-02T00:48:32.507Z,11.3
2018-07-02T00:49:04.444Z,11.3
2018-07-02T00:49:33.482Z,11.3
2018-07-02T00:50:04.153Z,11.3
2018-07-02T00:50:35.201Z,11.3
2018-07-02T00:51:05.048Z,11.3
2018-07-02T00:51:35.717Z,11.3
2018-07-02T00:52:58.337Z,11.3
2018-07-02T00:53:57.823Z,11.2
2018-07-02T00:54:56.841Z,11.3
2018-07-02T00:55:56.339Z,11.3
2018-07-02T00:56:55.150Z,11.2
2018-07-02T00:57:54.743Z,11.2
2018-07-02T00:58:54.059Z,11.2
2018-07-02T00:59:23.943Z,11.2
2018-07-02T00:59:54.635Z,11.2
2018-07-02T01:00:26.387Z,11.2
2018-07-02T01:00:55.787Z,11.2
2018-07-02T01:01:26.282Z,11.2
2018-07-02T01:01:56.457Z,11.2
2018-07-02T01:02:26.697Z,11.2
2018-07-02T01:03:49.803Z,11.1
2018-07-02T01:04:49.294Z,11.1
2018-07-02T01:05:48.376Z,11.1
2018-07-02T01:06:47.710Z,11.1
2018-07-02T01:07:46.683Z,11.1
2018-07-02T01:08:46.142Z,11.1
2018-07-02T01:09:45.167Z,11.1
2018-07-02T01:10:44.622Z,11.1
2018-07-02T01:11:43.921Z,11.1
2018-07-02T01:12:42.886Z,11.1
2018-07-02T01:13:42.232Z,11.1
2018-07-02T01:14:42.544Z,11.1
2018-07-02T01:15:40.646Z,11.1
2018-07-02T01:16:39.673Z,11.1
2018-07-02T01:17:40.304Z,11.1
2018-07-02T01:18:38.164Z,11.1
2018-07-02T01:19:37.314Z,11.1
2018-07-02T01:20:37.861Z,11.1
2018-07-02T01:21:36.154Z,11.1
2018-07-02T01:22:35.296Z,11
2018-07-02T01:23:35.521Z,11
2018-07-02T01:24:33.377Z,11
2018-07-02T01:25:32.884Z,11
2018-07-02T01:26:32.914Z,11
2018-07-02T01:27:31.120Z,11
2018-07-02T01:28:30.478Z,11
2018-07-02T01:29:01.110Z,11
2018-07-02T01:29:31.714Z,11
2018-07-02T01:30:02.019Z,11
2018-07-02T01:30:32.787Z,11
2018-07-02T01:31:02.799Z,11
2018-07-02T01:31:33.539Z,11
2018-07-02T01:32:04.025Z,11
2018-07-02T01:33:26.143Z,11
2018-07-02T01:34:25.949Z,10.9
2018-07-02T01:35:24.852Z,10.9
2018-07-02T01:36:24.770Z,10.9
2018-07-02T01:37:24.294Z,10.9
2018-07-02T01:38:22.469Z,10.9
2018-07-02T01:46:36.002Z,10.9
2018-07-02T01:47:15.305Z,10.8
2018-07-02T01:50:31.656Z,10.8
2018-07-02T01:51:12.481Z,10.7
2018-07-02T01:52:11.377Z,10.7
2018-07-02T01:53:10.693Z,10.7
2018-07-02T01:54:09.533Z,10.7
2018-07-02T01:55:08.957Z,10.7
2018-07-02T01:56:08.295Z,10.7
2018-07-02T01:57:08.222Z,10.6
2018-07-02T01:58:06.479Z,10.6
2018-07-02T01:59:05.766Z,10.6
2018-07-02T02:00:05.036Z,10.6
2018-07-02T02:01:04.792Z,10.5
2018-07-02T02:02:03.633Z,10.6
2018-07-02T02:03:02.660Z,10.6
2018-07-02T02:04:02.275Z,10.5
2018-07-02T02:05:01.514Z,10.5
2018-07-02T02:06:00.207Z,10.5
2018-07-02T02:06:59.636Z,10.5
2018-07-02T02:07:58.424Z,10.5
2018-07-02T02:08:58.462Z,10.5
2018-07-02T02:09:56.968Z,10.4
2018-07-02T02:10:56.110Z,10.5
2018-07-02T02:12:55.943Z,10.5
2018-07-02T02:13:53.723Z,10.5
2018-07-02T02:14:53.126Z,10.5
2018-07-02T02:15:52.517Z,10.4
2018-07-02T02:16:52.492Z,10.4
2018-07-02T02:17:50.880Z,10.4
2018-07-02T02:18:49.790Z,10.4
2018-07-02T02:19:49.218Z,10.4
2018-07-02T02:20:49.370Z,10.3
2018-07-02T02:21:47.368Z,10.3
2018-07-02T02:22:46.838Z,10.3
2018-07-02T02:23:46.302Z,10.3
2018-07-02T02:24:46.178Z,10.3
2018-07-02T02:25:44.296Z,10.2
2018-07-02T02:26:14.494Z,10.2
2018-07-02T02:26:45.107Z,10.3
2018-07-02T02:27:16.329Z,10.3
2018-07-02T02:27:46.000Z,10.2
2018-07-02T02:28:42.889Z,10.2
2018-07-02T02:29:41.092Z,10.2
2018-07-02T02:31:39.279Z,10.2
2018-07-02T02:32:39.773Z,10.2
2018-07-02T02:33:38.190Z,10.2
2018-07-02T02:34:37.257Z,10.2
2018-07-02T02:35:36.705Z,10.2
2018-07-02T02:36:36.182Z,10.2
2018-07-02T02:37:34.743Z,10.2
2018-07-02T02:39:32.983Z,10.2
2018-07-02T02:40:33.617Z,10.2
2018-07-02T02:41:31.685Z,10.2
2018-07-02T02:42:30.642Z,10.2
2018-07-02T02:43:29.923Z,10.2
2018-07-02T02:44:30.594Z,10.2
2018-07-02T02:45:28.262Z,10.2
2018-07-02T02:46:27.565Z,10.2
2018-07-02T02:47:26.475Z,10.2
2018-07-02T02:48:27.127Z,10.2
2018-07-02T02:49:25.243Z,10.2
2018-07-02T02:50:24.384Z,10.2
2018-07-02T02:51:23.317Z,10.2
2018-07-02T02:52:22.606Z,10.2
2018-07-02T02:53:22.020Z,10.2
2018-07-02T02:54:21.002Z,10.2
2018-07-02T02:55:20.494Z,10.2
2018-07-02T02:56:19.653Z,10.1
2018-07-02T02:57:18.623Z,10.1
2018-07-02T02:58:18.221Z,10.1
2018-07-02T02:59:17.049Z,10.1
2018-07-02T03:01:15.478Z,10.1
2018-07-02T03:02:14.818Z,10.1
2018-07-02T03:03:13.983Z,10
2018-07-02T03:04:13.508Z,10
2018-07-02T03:05:12.326Z,10
2018-07-02T03:05:43.947Z,10
2018-07-02T03:06:13.396Z,10
2018-07-02T03:06:43.782Z,10
2018-07-02T03:08:10.169Z,10
2018-07-02T03:09:08.935Z,10
2018-07-02T03:10:08.349Z,9.9
2018-07-02T03:11:07.294Z,9.9
2018-07-02T03:12:07.279Z,9.9
2018-07-02T03:13:05.956Z,9.9
2018-07-02T03:14:04.918Z,9.9
2018-07-02T03:15:04.350Z,9.9
2018-07-02T03:16:03.687Z,9.9
2018-07-02T03:16:33.726Z,9.9
2018-07-02T03:18:01.887Z,9.9
2018-07-02T03:18:32.496Z,9.9
2018-07-02T03:19:02.607Z,9.9
2018-07-02T03:19:32.966Z,9.9
2018-07-02T03:20:59.221Z,9.9
2018-07-02T03:21:58.535Z,9.9
2018-07-02T03:22:58.095Z,9.9
2018-07-02T03:23:57.841Z,9.9
2018-07-02T03:24:56.485Z,9.9
2018-07-02T03:25:55.365Z,9.9
2018-07-02T03:26:54.295Z,9.9
2018-07-02T03:27:54.131Z,9.9
2018-07-02T03:28:53.122Z,9.9
2018-07-02T03:29:52.182Z,9.9
2018-07-02T03:30:51.507Z,9.9
2018-07-02T03:31:51.699Z,9.9
2018-07-02T03:32:49.717Z,9.9
2018-07-02T03:34:48.029Z,9.9
2018-07-02T03:35:47.473Z,9.9
2018-07-02T03:36:46.499Z,9.9
2018-07-02T03:37:45.804Z,9.9
2018-07-02T03:38:46.299Z,9.9
2018-07-02T03:39:43.882Z,9.9
2018-07-02T03:40:43.178Z,9.9
2018-07-02T03:41:42.225Z,9.9
2018-07-02T03:42:42.406Z,9.9
2018-07-02T03:43:41.042Z,9.9
2018-07-02T03:44:40.129Z,9.9
2018-07-02T03:45:39.049Z,9.9
2018-07-02T03:46:39.706Z,9.9
2018-07-02T03:47:37.786Z,9.9
2018-07-02T03:49:35.624Z,9.9
2018-07-02T03:50:35.029Z,9.9
2018-07-02T03:51:34.335Z,9.9
2018-07-02T03:52:33.254Z,9.9
2018-07-02T03:53:32.493Z,9.9
2018-07-02T03:54:31.813Z,9.8
2018-07-02T03:55:30.988Z,9.8
2018-07-02T03:56:30.280Z,9.9
2018-07-02T03:57:29.823Z,9.8
2018-07-02T03:58:28.628Z,9.8
2018-07-02T03:58:58.883Z,9.8
2018-07-02T03:59:29.211Z,9.8
2018-07-02T04:00:26.977Z,9.9
2018-07-02T04:01:26.460Z,9.8
2018-07-02T04:02:25.390Z,9.9
2018-07-02T04:03:24.673Z,9.9
2018-07-02T04:04:23.436Z,9.9
2018-07-02T04:05:23.280Z,9.9
2018-07-02T04:06:22.365Z,9.9
2018-07-02T04:07:21.155Z,9.9
2018-07-02T04:08:20.726Z,9.9
2018-07-02T04:09:19.894Z,9.9
2018-07-02T04:10:18.652Z,9.9
2018-07-02T04:11:17.832Z,9.9
2018-07-02T04:12:17.379Z,9.9
2018-07-02T04:13:17.551Z,9.9
2018-07-02T04:14:15.327Z,10
2018-07-02T04:15:14.769Z,10
2018-07-02T04:16:13.839Z,10
2018-07-02T04:17:13.118Z,10
2018-07-02T04:18:13.522Z,10
2018-07-02T04:19:12.546Z,10
2018-07-02T04:20:10.762Z,10.1
2018-07-02T04:21:10.444Z,10
2018-07-02T04:22:09.061Z,10.1
2018-07-02T04:23:08.498Z,10.1
2018-07-02T04:24:07.689Z,10.1
2018-07-02T04:25:07.062Z,10.1
2018-07-02T04:26:06.059Z,10.1
2018-07-02T04:27:05.185Z,10.2
2018-07-02T04:28:04.093Z,10.2
2018-07-02T04:29:03.378Z,10.2
2018-07-02T04:30:02.574Z,10.2
2018-07-02T04:31:02.039Z,10.2
2018-07-02T04:32:00.916Z,10.2
2018-07-02T04:33:00.206Z,10.2
2018-07-02T04:33:59.470Z,10.2
2018-07-02T04:34:58.408Z,10.3
2018-07-02T04:35:28.531Z,10.3
2018-07-02T04:35:59.164Z,10.3
2018-07-02T04:36:30.569Z,10.3
2018-07-02T04:37:00.052Z,10.3
2018-07-02T04:37:30.534Z,10.3
2018-07-02T04:38:54.999Z,10.3
2018-07-02T04:39:54.572Z,10.4
2018-07-02T04:40:54.631Z,10.4
2018-07-02T04:41:53.254Z,10.4
2018-07-02T04:42:53.135Z,10.4
2018-07-02T04:43:51.417Z,10.4
2018-07-02T04:44:51.203Z,10.4
2018-07-02T04:45:50.377Z,10.4
2018-07-02T04:46:49.928Z,10.4
2018-07-02T04:47:50.554Z,10.5
2018-07-02T04:48:19.637Z,10.5
2018-07-02T04:49:47.280Z,10.5
2018-07-02T04:50:46.519Z,10.5
2018-07-02T04:51:45.799Z,10.6
2018-07-02T04:53:43.968Z,10.6
2018-07-02T04:54:42.802Z,10.7
2018-07-02T04:55:41.948Z,10.7
2018-07-02T04:56:41.707Z,10.7
2018-07-02T04:58:39.942Z,10.8
2018-07-02T04:59:38.545Z,10.8
2018-07-02T05:00:37.590Z,10.8
2018-07-02T05:01:36.443Z,10.9
2018-07-02T05:02:35.662Z,10.9
2018-07-02T05:03:34.988Z,10.9
2018-07-02T05:04:34.200Z,11
2018-07-02T05:05:33.023Z,11
2018-07-02T05:06:32.795Z,11
2018-07-02T05:07:31.704Z,11.1
2018-07-02T05:08:30.785Z,11.1
2018-07-02T05:09:30.220Z,11.1
2018-07-02T05:10:29.547Z,11.2
2018-07-02T05:11:28.563Z,11.2
2018-07-02T05:12:27.434Z,11.2
2018-07-02T05:13:26.719Z,11.2
2018-07-02T05:14:25.951Z,11.3
2018-07-02T05:15:25.069Z,11.3
2018-07-02T05:15:55.714Z,11.3
2018-07-02T05:16:26.358Z,11.3
2018-07-02T05:16:57.108Z,11.3
2018-07-02T05:18:22.824Z,11.4
2018-07-02T05:19:21.741Z,11.4
2018-07-02T05:20:21.356Z,11.5
2018-07-02T05:21:20.681Z,11.5
2018-07-02T05:22:19.905Z,11.5
2018-07-02T05:23:18.618Z,11.5
2018-07-02T05:24:17.937Z,11.6
2018-07-02T05:25:17.149Z,11.6
2018-07-02T05:26:16.499Z,11.7
2018-07-02T05:27:15.740Z,11.7
2018-07-02T05:28:14.866Z,11.8
2018-07-02T05:29:14.349Z,11.9
2018-07-02T05:30:13.178Z,11.9
2018-07-02T05:31:12.288Z,11.9
2018-07-02T05:32:11.620Z,11.9
2018-07-02T05:33:10.540Z,12
2018-07-02T05:34:09.867Z,12
2018-07-02T05:35:09.195Z,12
2018-07-02T05:36:08.708Z,12
2018-07-02T05:37:07.649Z,12
2018-07-02T05:38:06.765Z,12
2018-07-02T05:39:06.095Z,12
2018-07-02T05:40:05.420Z,12
2018-07-02T05:41:04.659Z,12.1
2018-07-02T05:42:03.483Z,12.1
2018-07-02T05:43:02.927Z,12.1
2018-07-02T05:44:02.152Z,12.1
2018-07-02T05:45:01.265Z,12.1
2018-07-02T05:46:00.487Z,12.2
2018-07-02T05:46:59.723Z,12.2
2018-07-02T05:47:58.938Z,12.2
2018-07-02T05:48:58.174Z,12.2
2018-07-02T05:49:57.499Z,12.3
2018-07-02T05:50:56.310Z,12.3
2018-07-02T05:51:55.648Z,12.3
2018-07-02T05:52:54.758Z,12.3
2018-07-02T05:53:54.095Z,12.4
2018-07-02T05:54:53.655Z,12.4
2018-07-02T05:55:52.817Z,12.4
2018-07-02T05:56:51.704Z,12.5
2018-07-02T05:57:51.151Z,12.5
2018-07-02T05:58:50.088Z,12.5
2018-07-02T05:59:49.417Z,12.6
2018-07-02T06:00:49.194Z,12.6
2018-07-02T06:01:19.505Z,12.6
2018-07-02T06:01:49.645Z,12.6
2018-07-02T06:02:20.390Z,12.6
2018-07-02T06:03:46.193Z,12.7
2018-07-02T06:04:45.422Z,12.7
2018-07-02T06:05:44.576Z,12.7
2018-07-02T06:06:43.585Z,12.8
2018-07-02T06:07:42.841Z,12.8
2018-07-02T06:08:42.397Z,12.9
2018-07-02T06:09:41.613Z,12.9
2018-07-02T06:10:40.972Z,13
2018-07-02T06:11:11.218Z,13
2018-07-02T06:11:41.497Z,13
2018-07-02T06:12:11.817Z,13
2018-07-02T06:13:38.219Z,13.1
2018-07-02T06:14:37.655Z,13.1
2018-07-02T06:16:36.051Z,13.2
2018-07-02T06:17:35.390Z,13.2
2018-07-02T06:18:34.708Z,13.3
2018-07-02T06:19:33.539Z,13.3
2018-07-02T06:20:32.861Z,13.3
2018-07-02T06:21:32.087Z,13.4
2018-07-02T06:22:31.206Z,13.4
2018-07-02T06:23:30.533Z,13.4
2018-07-02T06:24:29.861Z,13.5
2018-07-02T06:25:28.987Z,13.5
2018-07-02T06:26:28.426Z,13.5
2018-07-02T06:27:27.758Z,13.6
2018-07-02T06:28:26.469Z,13.7
2018-07-02T06:30:25.373Z,13.8
2018-07-02T06:31:24.672Z,13.9
2018-07-02T06:32:23.785Z,13.9
2018-07-02T06:33:23.012Z,13.9
2018-07-02T06:34:22.026Z,13.9
2018-07-02T06:35:21.353Z,13.9
2018-07-02T06:36:20.799Z,14
2018-07-02T06:37:19.625Z,14.1
2018-07-02T06:38:19.069Z,14.2
2018-07-02T06:39:18.563Z,14.2
2018-07-02T06:40:17.296Z,14.2
2018-07-02T06:41:16.525Z,14.2
2018-07-02T06:42:15.860Z,14.3
2018-07-02T06:43:15.305Z,14.3
2018-07-02T06:44:14.526Z,14.3
2018-07-02T06:45:13.852Z,14.4
2018-07-02T06:46:13.176Z,14.4
2018-07-02T06:47:12.102Z,14.4
2018-07-02T06:48:11.440Z,14.4
2018-07-02T06:49:10.777Z,14.4
2018-07-02T06:50:09.706Z,14.5
2018-07-02T06:50:39.970Z,14.5
2018-07-02T06:51:10.224Z,14.5
2018-07-02T06:51:40.364Z,14.5
2018-07-02T06:52:11.109Z,14.6
2018-07-02T06:52:41.428Z,14.6
2018-07-02T06:53:11.659Z,14.7
2018-07-02T06:53:42.304Z,14.7
2018-07-02T06:54:12.946Z,14.7
2018-07-02T06:54:43.583Z,14.7
2018-07-02T06:56:05.558Z,14.7
2018-07-02T06:57:04.505Z,14.7
2018-07-02T06:58:03.938Z,14.7
2018-07-02T06:59:02.655Z,14.8
2018-07-02T07:00:02.145Z,14.8
2018-07-02T07:01:01.402Z,14.8
2018-07-02T07:02:00.735Z,14.8
2018-07-02T07:03:00.066Z,14.8
2018-07-02T07:03:59.179Z,14.8
2018-07-02T07:04:29.440Z,14.8
2018-07-02T07:04:59.683Z,14.9
2018-07-02T07:05:30.323Z,14.9
2018-07-02T07:06:00.957Z,14.9
2018-07-02T07:06:57.273Z,14.9
2018-07-02T07:07:56.015Z,14.9
2018-07-02T07:08:55.352Z,15
2018-07-02T07:09:54.860Z,15.1
2018-07-02T07:10:54.083Z,15.2
2018-07-02T07:11:53.415Z,15.2
2018-07-02T07:12:52.250Z,15.2
2018-07-02T07:13:51.575Z,15.3
2018-07-02T07:14:51.294Z,15.3
2018-07-02T07:15:50.406Z,15.3
2018-07-02T07:16:49.734Z,15.3
2018-07-02T07:17:49.067Z,15.3
2018-07-02T07:18:47.899Z,15.3
2018-07-02T07:19:47.230Z,15.4
2018-07-02T07:20:46.240Z,15.4
2018-07-02T07:21:45.679Z,15.5
2018-07-02T07:22:45.137Z,15.6
2018-07-02T07:23:44.463Z,15.6
2018-07-02T07:24:43.891Z,15.6
2018-07-02T07:25:43.047Z,15.7
2018-07-02T07:26:42.246Z,15.7
2018-07-02T07:27:41.685Z,15.7
2018-07-02T07:28:40.799Z,15.8
2018-07-02T07:29:40.125Z,15.8
2018-07-02T07:30:39.058Z,15.8
2018-07-02T07:31:38.685Z,15.9
2018-07-02T07:32:38.018Z,15.9
2018-07-02T07:33:37.241Z,16
2018-07-02T07:34:36.067Z,16
2018-07-02T07:35:35.183Z,16
2018-07-02T07:36:34.798Z,16.1
2018-07-02T07:37:34.562Z,16.1
2018-07-02T07:38:33.513Z,16.1
2018-07-02T07:39:32.754Z,16.1
2018-07-02T07:40:32.198Z,16.1
2018-07-02T07:41:30.913Z,16.1
2018-07-02T07:42:30.640Z,16.2
2018-07-02T07:43:29.869Z,16.2
2018-07-02T07:44:29.211Z,16.2
2018-07-02T07:45:27.943Z,16.3
2018-07-02T07:46:27.674Z,16.4
2018-07-02T07:47:27.005Z,16.5
2018-07-02T07:48:26.434Z,16.5
2018-07-02T07:49:25.380Z,16.6
2018-07-02T07:49:55.913Z,16.6
2018-07-02T07:50:26.554Z,16.6
2018-07-02T07:51:23.973Z,16.6
2018-07-02T07:52:23.207Z,16.6
2018-07-02T07:53:22.542Z,16.7
2018-07-02T07:54:21.774Z,16.7
2018-07-02T07:55:20.991Z,16.8
2018-07-02T07:56:20.317Z,16.9
2018-07-02T07:57:19.751Z,17
2018-07-02T07:59:18.465Z,16.9
2018-07-02T07:59:48.892Z,16.9
2018-07-02T08:01:16.907Z,17.1
2018-07-02T08:02:16.148Z,17.1
2018-07-02T08:03:15.471Z,17.2
2018-07-02T08:04:14.690Z,17.2
2018-07-02T08:05:13.952Z,17.2
2018-07-02T08:06:13.463Z,17.2
2018-07-02T08:07:12.695Z,17.2
2018-07-02T08:08:11.809Z,17.2
2018-07-02T08:09:11.244Z,17.2
2018-07-02T08:10:10.680Z,17.2
2018-07-02T08:11:09.572Z,17.2
2018-07-02T08:12:09.296Z,17.1
2018-07-02T08:13:08.737Z,17.1
2018-07-02T08:14:07.561Z,17.1
2018-07-02T08:15:06.994Z,17.2
2018-07-02T08:16:06.321Z,17.2
2018-07-02T08:17:05.776Z,17.2
2018-07-02T08:18:05.108Z,17.2
2018-07-02T08:19:04.683Z,17.3
2018-07-02T08:20:03.428Z,17.4
2018-07-02T08:21:02.766Z,17.4
2018-07-02T08:22:02.100Z,17.4
2018-07-02T08:23:01.333Z,17.4
2018-07-02T08:24:00.560Z,17.3
2018-07-02T08:24:59.993Z,17.3
2018-07-02T08:25:59.325Z,17.3
2018-07-02T08:26:58.762Z,17.3
2018-07-02T08:27:57.769Z,17.4
2018-07-02T08:28:57.196Z,17.4
2018-07-02T08:29:27.326Z,17.4
2018-07-02T08:29:57.967Z,17.4
2018-07-02T08:30:28.285Z,17.4
2018-07-02T08:30:58.931Z,17.5
2018-07-02T08:31:29.472Z,17.5
2018-07-02T08:32:00.107Z,17.6
2018-07-02T08:32:30.347Z,17.6
2018-07-02T08:33:01.412Z,17.6
2018-07-02T08:33:31.129Z,17.6
2018-07-02T08:34:53.208Z,17.7
2018-07-02T08:35:52.645Z,17.7
2018-07-02T08:36:51.974Z,17.7
2018-07-02T08:37:51.406Z,17.6
2018-07-02T08:38:50.726Z,17.7
2018-07-02T08:39:49.653Z,17.7
2018-07-02T08:40:49.091Z,17.7
2018-07-02T08:41:19.676Z,17.7
2018-07-02T08:41:49.884Z,17.7
2018-07-02T08:42:20.530Z,17.7
2018-07-02T08:42:51.066Z,17.7
2018-07-02T08:43:21.714Z,17.7
2018-07-02T08:44:46.106Z,17.8
2018-07-02T08:45:45.940Z,17.8
2018-07-02T08:46:45.411Z,17.8
2018-07-02T08:47:44.175Z,17.8
2018-07-02T08:48:43.613Z,17.8
2018-07-02T08:49:42.877Z,17.8
2018-07-02T08:50:42.196Z,17.8
2018-07-02T08:51:41.416Z,17.9
2018-07-02T08:52:41.202Z,18
2018-07-02T08:53:40.393Z,18
2018-07-02T08:54:39.831Z,18.1
2018-07-02T08:55:39.063Z,18.2
2018-07-02T08:56:38.512Z,18.4
2018-07-02T08:57:37.854Z,18.3
2018-07-02T08:58:36.792Z,18.3
2018-07-02T08:59:36.525Z,18.4
2018-07-02T09:00:35.460Z,18.4
2018-07-02T09:01:35.082Z,18.5
2018-07-02T09:02:34.307Z,18.5
2018-07-02T09:03:33.643Z,18.4
2018-07-02T09:04:32.969Z,18.4
2018-07-02T09:05:32.297Z,18.5
2018-07-02T09:06:31.751Z,18.5
2018-07-02T09:07:31.184Z,18.5
2018-07-02T09:08:30.029Z,18.5
2018-07-02T09:09:29.860Z,18.5
2018-07-02T09:10:29.038Z,18.6
2018-07-02T09:11:28.147Z,18.6
2018-07-02T09:12:27.474Z,18.5
2018-07-02T09:13:26.798Z,18.5
2018-07-02T09:14:26.144Z,18.4
2018-07-02T09:15:25.478Z,18.4
2018-07-02T09:16:24.920Z,18.3
2018-07-02T09:17:24.401Z,18.2
2018-07-02T09:18:23.618Z,18.2
2018-07-02T09:19:22.739Z,18.2
2018-07-02T09:20:22.579Z,18.3
2018-07-02T09:21:21.510Z,18.3
2018-07-02T09:22:20.836Z,18.4
2018-07-02T09:22:51.372Z,18.4
2018-07-02T09:23:22.005Z,18.4
2018-07-02T09:23:52.722Z,18.4
2018-07-02T09:24:22.770Z,18.4
2018-07-02T09:25:19.320Z,18.5
2018-07-02T09:26:18.262Z,18.5
2018-07-02T09:27:17.738Z,18.6
2018-07-02T09:28:17.066Z,18.7
2018-07-02T09:28:47.317Z,18.7
2018-07-02T09:30:15.873Z,18.7
2018-07-02T09:31:14.995Z,18.8
2018-07-02T09:32:14.396Z,18.8
2018-07-02T09:33:13.748Z,18.8
2018-07-02T09:34:12.965Z,18.8
2018-07-02T09:35:12.589Z,18.8
2018-07-02T09:36:11.945Z,18.8
2018-07-02T09:37:11.281Z,18.8
2018-07-02T09:38:10.398Z,18.9
2018-07-02T09:39:10.045Z,18.9
2018-07-02T09:39:39.879Z,18.9
2018-07-02T09:40:10.263Z,18.8
2018-07-02T09:41:08.477Z,18.8
2018-07-02T09:42:07.830Z,18.9
2018-07-02T09:43:07.255Z,18.9
2018-07-02T09:44:06.691Z,18.8
2018-07-02T09:45:05.805Z,18.8
2018-07-02T09:46:05.322Z,18.8
2018-07-02T09:47:04.439Z,18.8
2018-07-02T09:48:04.270Z,18.8
2018-07-02T09:49:03.497Z,18.8
2018-07-02T09:51:02.109Z,18.8
2018-07-02T09:52:01.449Z,19
2018-07-02T09:53:00.804Z,19
2018-07-02T09:54:00.240Z,18.8
2018-07-02T09:54:59.462Z,18.8
2018-07-02T09:55:59.029Z,18.8
2018-07-02T09:56:58.461Z,18.8
2018-07-02T09:57:57.794Z,18.8
2018-07-02T09:58:57.013Z,18.7
2018-07-02T09:59:56.127Z,18.9
2018-07-02T10:00:55.918Z,18.9
2018-07-02T10:01:55.086Z,19
2018-07-02T10:02:54.417Z,19
2018-07-02T10:03:53.738Z,19.1
2018-07-02T10:04:52.971Z,19.1
2018-07-02T10:05:52.701Z,19.2
2018-07-02T10:06:51.846Z,19.2
2018-07-02T10:07:51.182Z,19.2
2018-07-02T10:08:50.404Z,19.3
2018-07-02T10:09:20.944Z,19.3
2018-07-02T10:09:51.596Z,19.3
2018-07-02T10:10:22.123Z,19.3
2018-07-02T10:10:52.765Z,19.2
2018-07-02T10:11:23.459Z,19.2
2018-07-02T10:12:47.963Z,19.2
2018-07-02T10:13:47.079Z,19.3
2018-07-02T10:14:46.852Z,19.2
2018-07-02T10:15:46.080Z,19.5
2018-07-02T10:16:45.702Z,19.7
2018-07-02T10:17:44.537Z,19.7
2018-07-02T10:18:43.866Z,19.7
2018-07-02T10:19:14.624Z,19.7
2018-07-02T10:19:45.270Z,19.7
2018-07-02T10:20:15.691Z,19.7
2018-07-02T10:20:46.017Z,19.7
2018-07-02T10:21:16.550Z,19.7
2018-07-02T10:21:47.194Z,19.8
2018-07-02T10:22:17.735Z,19.8
2018-07-02T10:22:48.162Z,19.8
2018-07-02T10:23:18.191Z,19.8
2018-07-02T10:24:40.461Z,19.9
2018-07-02T10:25:39.689Z,19.9
2018-07-02T10:26:39.133Z,19.8
2018-07-02T10:27:38.469Z,19.8
2018-07-02T10:28:37.691Z,19.8
2018-07-02T10:29:37.318Z,19.8
2018-07-02T10:30:36.659Z,19.7
2018-07-02T10:31:35.992Z,19.9
2018-07-02T10:32:35.328Z,19.9
2018-07-02T10:33:05.756Z,19.9
2018-07-02T10:34:33.857Z,20
2018-07-02T10:35:33.684Z,19.9
2018-07-02T10:36:32.701Z,20
2018-07-02T10:37:32.580Z,20
2018-07-02T10:38:31.803Z,19.9
2018-07-02T10:39:30.922Z,19.9
2018-07-02T10:40:30.645Z,20
2018-07-02T10:41:29.870Z,20
2018-07-02T10:42:29.094Z,20.1
2018-07-02T10:43:28.539Z,20.2
2018-07-02T10:44:27.863Z,20.2
2018-07-02T10:45:27.481Z,20.3
2018-07-02T10:46:26.804Z,20.3
2018-07-02T10:47:26.021Z,20.3
2018-07-02T10:48:25.374Z,20.3
2018-07-02T10:49:24.892Z,20.3
2018-07-02T10:50:24.854Z,20.3
2018-07-02T10:51:23.490Z,20.2
2018-07-02T10:52:23.429Z,20.2
2018-07-02T10:53:22.762Z,20.1
2018-07-02T10:54:21.978Z,20.1
2018-07-02T10:55:21.209Z,20.3
2018-07-02T10:56:20.934Z,20.3
2018-07-02T10:58:19.533Z,20.1
2018-07-02T10:59:18.980Z,20.1
2018-07-02T11:00:18.301Z,20.1
2018-07-02T11:01:17.701Z,20.1
2018-07-02T11:02:16.909Z,20.2
2018-07-02T11:02:47.444Z,20.2
2018-07-02T11:03:18.078Z,20.3
2018-07-02T11:03:48.210Z,20.3
2018-07-02T11:05:15.329Z,20.3
2018-07-02T11:06:14.657Z,20.4
2018-07-02T11:07:14.486Z,20.4
2018-07-02T11:08:13.707Z,20.4
2018-07-02T11:09:13.053Z,20.5
2018-07-02T11:10:12.397Z,20.6
2018-07-02T11:11:11.684Z,20.6
2018-07-02T11:12:11.110Z,20.8
2018-07-02T11:13:10.467Z,21
2018-07-02T11:14:10.104Z,21.2
2018-07-02T11:15:09.557Z,21.3
2018-07-02T11:16:08.999Z,21.4
2018-07-02T11:17:08.534Z,21.5
2018-07-02T11:18:07.766Z,21.6
2018-07-02T11:19:07.099Z,21.7
2018-07-02T11:20:06.934Z,21.6
2018-07-02T11:21:06.267Z,21.5
2018-07-02T11:22:05.488Z,21.5
2018-07-02T11:23:05.213Z,21.5
2018-07-02T11:24:04.535Z,21.5
2018-07-02T11:25:03.879Z,21.6
2018-07-02T11:26:03.213Z,21.7
2018-07-02T11:27:02.548Z,21.7
2018-07-02T11:28:02.278Z,21.7
2018-07-02T11:29:01.495Z,21.5
2018-07-02T11:30:00.933Z,21.6
2018-07-02T11:31:00.368Z,21.7
2018-07-02T11:31:59.590Z,21.8
2018-07-02T11:32:59.555Z,21.9
2018-07-02T11:33:58.793Z,22.1
2018-07-02T11:34:58.225Z,22.1
2018-07-02T11:35:57.346Z,22.2
2018-07-02T11:36:57.181Z,22.4
2018-07-02T11:37:56.651Z,22.6
2018-07-02T11:38:55.980Z,22.8
2018-07-02T11:40:54.707Z,23.3
2018-07-02T11:41:54.433Z,23.4
2018-07-02T11:42:53.758Z,23.4
2018-07-02T11:43:53.287Z,23.5
2018-07-02T11:44:52.403Z,23.3
2018-07-02T11:45:52.133Z,23
2018-07-02T11:46:51.750Z,23
2018-07-02T11:47:50.972Z,23
2018-07-02T11:48:50.588Z,23.2
2018-07-02T11:49:50.321Z,23.2
2018-07-02T11:50:49.754Z,23.3
2018-07-02T11:51:49.081Z,23.3
2018-07-02T11:52:48.404Z,23.4
2018-07-02T11:53:47.838Z,23.5
2018-07-02T11:54:47.578Z,23.7
2018-07-02T11:55:46.912Z,23.7
2018-07-02T11:56:46.536Z,23.8
2018-07-02T11:57:45.969Z,24
2018-07-02T11:58:45.294Z,23.9
2018-07-02T11:59:45.023Z,24
2018-07-02T12:00:15.681Z,24
2018-07-02T12:00:46.437Z,24
2018-07-02T12:01:16.684Z,24
2018-07-02T12:01:46.766Z,23.8
2018-07-02T12:02:17.475Z,23.8
2018-07-02T12:02:48.226Z,23.9
2018-07-02T12:03:43.023Z,23.5
2018-07-02T12:04:42.461Z,23.6
2018-07-02T12:06:41.492Z,23.8
2018-07-02T12:07:41.113Z,24
2018-07-02T12:08:40.333Z,24.3
2018-07-02T12:09:39.959Z,24.5
2018-07-02T12:10:39.681Z,24.6
2018-07-02T12:11:39.006Z,24.8
2018-07-02T12:12:38.451Z,24.8
2018-07-02T12:13:08.586Z,24.8
2018-07-02T12:13:39.234Z,24.7
2018-07-02T12:14:09.760Z,24.7
2018-07-02T12:14:40.512Z,24.7
2018-07-02T12:15:10.758Z,24.7
2018-07-02T12:16:36.764Z,24.7
2018-07-02T12:17:36.088Z,24.2
2018-07-02T12:18:35.524Z,24.5
2018-07-02T12:19:35.381Z,24.6
2018-07-02T12:20:34.824Z,24.7
2018-07-02T12:21:04.953Z,24.7
2018-07-02T12:21:35.487Z,24.7
2018-07-02T12:22:33.852Z,24.8
2018-07-02T12:23:33.088Z,24.9
2018-07-02T12:24:32.920Z,25
2018-07-02T12:26:32.141Z,24.9
2018-07-02T12:27:31.362Z,25
2018-07-02T12:29:30.683Z,24.9
2018-07-02T12:31:29.702Z,25.1
2018-07-02T12:32:29.032Z,24.9
2018-07-02T12:33:29.021Z,25
2018-07-02T12:34:28.350Z,25.3
2018-07-02T12:35:27.462Z,25.4
2018-07-02T12:36:27.407Z,25.4
2018-07-02T12:37:27.174Z,25.2
2018-07-02T12:38:26.282Z,24.9
2018-07-02T12:39:26.122Z,24.9
2018-07-02T12:40:25.844Z,24.6
2018-07-02T12:41:25.224Z,24.8
2018-07-02T12:42:24.945Z,24.9
2018-07-02T12:43:24.266Z,25.2
2018-07-02T12:44:23.991Z,25.4
2018-07-02T12:45:23.628Z,25
2018-07-02T12:46:22.857Z,24.9
2018-07-02T12:47:22.474Z,24.9
2018-07-02T12:48:22.196Z,25.1
2018-07-02T12:49:21.411Z,25.1
2018-07-02T12:50:21.416Z,25.3
2018-07-02T12:51:21.137Z,25.5
2018-07-02T12:52:20.249Z,25.2
2018-07-02T12:53:20.190Z,25.5
2018-07-02T12:54:20.043Z,25.6
2018-07-02T12:55:19.133Z,25.3